Time;durP1;ratioP1;P1;durP2;ratioP2;P2;SDS_P1;SDS_P2;PMS_P1;PMS_P2;Temp;Humidity;BMP_temperature;BMP_pressure;BME280_temperature;BME280_humidity;BME280_pressure;Samples;Min_cycle;Max_cycle;Signal;HPM_P1;HPM_P2
2021/08/25 00:02:00;;;;;;;9.20;4.32;;;15.40;90.30;;;;;;5041673;28;20073;-66
2021/08/25 00:04:26;;;;;;;7.65;3.85;;;15.40;90.40;;;;;;5032334;28;20466;-65
2021/08/25 00:06:51;;;;;;;7.32;4.22;;;15.30;90.50;;;;;;5037355;28;20017;-65
2021/08/25 00:09:17;;;;;;;7.22;3.63;;;15.30;90.50;;;;;;5046651;28;20030;-65
2021/08/25 00:11:42;;;;;;;7.25;3.65;;;15.30;90.60;;;;;;5031110;28;20095;-65
2021/08/25 00:14:08;;;;;;;8.82;3.97;;;15.30;90.70;;;;;;5032532;28;20017;-66
2021/08/25 00:16:34;;;;;;;7.97;3.78;;;15.20;90.80;;;;;;5030608;28;20159;-65
2021/08/25 00:18:59;;;;;;;6.22;3.45;;;15.20;90.80;;;;;;5049572;28;20020;-65
2021/08/25 00:21:25;;;;;;;6.18;2.97;;;15.20;90.80;;;;;;5054892;28;20067;-65
2021/08/25 00:23:50;;;;;;;7.30;3.63;;;15.20;90.90;;;;;;5037338;28;20029;-65
2021/08/25 00:26:16;;;;;;;7.22;3.35;;;15.10;91.00;;;;;;5036664;28;20036;-65
2021/08/25 00:28:42;;;;;;;5.32;3.20;;;15.10;91.20;;;;;;5049298;28;20021;-65
2021/08/25 00:31:07;;;;;;;5.50;2.78;;;15.00;91.10;;;;;;5054373;28;20075;-65
2021/08/25 00:33:32;;;;;;;6.20;3.40;;;15.00;91.20;;;;;;5038877;28;20029;-66
2021/08/25 00:35:58;;;;;;;5.85;3.60;;;15.00;91.20;;;;;;5051805;28;20481;-65
2021/08/25 00:38:23;;;;;;;6.93;3.70;;;15.00;91.30;;;;;;5053547;28;20025;-65
2021/08/25 00:40:49;;;;;;;9.10;3.58;;;14.90;91.30;;;;;;5032116;28;20124;-65
2021/08/25 00:43:14;;;;;;;6.65;3.63;;;14.90;91.40;;;;;;5034076;28;20026;-65
2021/08/25 00:45:44;;;;;;;5.60;3.40;;;14.90;91.40;;;;;;5050620;28;20025;-65
2021/08/25 00:48:12;;;;;;;5.90;3.20;;;14.90;91.60;;;;;;5052372;28;20032;-65
2021/08/25 00:50:38;;;;;;;5.72;2.78;;;14.80;91.60;;;;;;5051038;28;20548;-65
2021/08/25 00:53:06;;;;;;;4.97;3.13;;;14.80;91.70;;;;;;5051415;28;20040;-65
2021/08/25 00:55:39;;;;;;;6.72;2.88;;;14.80;91.80;;;;;;5051295;28;20029;-65
2021/08/25 00:58:06;;;;;;;5.78;3.03;;;14.70;91.80;;;;;;5044226;28;20022;-65
2021/08/25 01:00:33;;;;;;;7.28;3.25;;;14.80;91.80;;;;;;5045169;28;20036;-65
2021/08/25 01:03:25;;;;;;;5.35;2.95;;;14.80;92.00;;;;;;5041636;28;20052;-65
2021/08/25 01:05:51;;;;;;;5.88;3.33;;;14.70;92.00;;;;;;5050909;28;20117;-65
2021/08/25 01:08:17;;;;;;;4.88;3.25;;;14.70;92.10;;;;;;5052772;28;20033;-65
2021/08/25 01:10:42;;;;;;;7.55;3.65;;;14.70;92.10;;;;;;5033822;28;20036;-65
2021/08/25 01:13:10;;;;;;;7.05;3.42;;;14.70;92.20;;;;;;5052633;28;20029;-65
2021/08/25 01:15:39;;;;;;;5.30;3.08;;;14.70;92.20;;;;;;5037597;28;20036;-66
2021/08/25 01:18:08;;;;;;;5.82;3.70;;;14.60;92.30;;;;;;5040933;28;20035;-65
2021/08/25 01:20:35;;;;;;;9.95;4.90;;;14.60;92.30;;;;;;5050736;28;20075;-64
2021/08/25 01:23:01;;;;;;;6.43;3.55;;;14.60;92.40;;;;;;5046435;28;20119;-65
2021/08/25 01:25:31;;;;;;;6.90;3.50;;;14.60;92.40;;;;;;5049069;28;20079;-65
2021/08/25 01:28:01;;;;;;;7.20;3.03;;;14.60;92.50;;;;;;5033408;28;20112;-65
2021/08/25 01:30:28;;;;;;;6.88;3.50;;;14.60;92.60;;;;;;5046016;28;20040;-65
2021/08/25 01:32:55;;;;;;;8.95;3.50;;;14.50;92.60;;;;;;5043536;28;20366;-65
2021/08/25 01:35:29;;;;;;;7.43;3.40;;;14.60;92.70;;;;;;5050675;28;20052;-65
2021/08/25 01:37:55;;;;;;;;;;;14.60;92.80;;;;;;5054175;28;20029;-66
2021/08/25 01:40:20;;;;;;;7.35;3.70;;;14.60;92.50;;;;;;5040959;28;20300;-65
2021/08/25 01:42:49;;;;;;;6.80;3.17;;;14.50;92.70;;;;;;5053450;28;20389;-65
2021/08/25 01:45:14;;;;;;;7.47;3.78;;;14.50;92.80;;;;;;5045413;28;20155;-65
2021/08/25 01:47:40;;;;;;;5.97;3.20;;;14.50;92.80;;;;;;5053287;28;20116;-64
2021/08/25 01:50:05;;;;;;;7.07;3.00;;;14.50;92.90;;;;;;5051450;28;20021;-64
2021/08/25 01:52:31;;;;;;;8.55;3.17;;;14.50;92.90;;;;;;5015952;28;20033;-64
2021/08/25 01:54:56;;;;;;;7.85;4.20;;;14.50;93.00;;;;;;5035490;28;20284;-64
2021/08/25 01:57:22;;;;;;;7.00;3.85;;;14.50;93.00;;;;;;5032979;28;20041;-64
2021/08/25 01:59:47;;;;;;;5.55;3.50;;;14.40;93.00;;;;;;5035865;28;20135;-64
2021/08/25 02:02:13;;;;;;;5.70;3.10;;;14.40;93.10;;;;;;5039981;28;20032;-66
2021/08/25 02:04:38;;;;;;;6.72;3.13;;;14.40;93.10;;;;;;5051013;28;20108;-66
2021/08/25 02:07:05;;;;;;;8.30;3.75;;;14.40;93.20;;;;;;5032973;28;20382;-66
2021/08/25 02:09:30;;;;;;;5.93;3.45;;;14.40;93.20;;;;;;5038415;28;20123;-65
2021/08/25 02:11:56;;;;;;;5.05;3.05;;;14.30;93.20;;;;;;5041063;28;20112;-65
2021/08/25 02:14:22;;;;;;;8.10;3.50;;;14.30;93.30;;;;;;5034174;28;20347;-65
2021/08/25 02:16:47;;;;;;;6.90;3.38;;;14.30;93.40;;;;;;5039900;28;20061;-65
2021/08/25 02:19:12;;;;;;;6.72;3.42;;;14.30;93.40;;;;;;5032315;28;20493;-65
2021/08/25 02:21:38;;;;;;;5.05;3.28;;;14.30;93.50;;;;;;5050532;28;20090;-65
2021/08/25 02:24:04;;;;;;;6.30;3.90;;;14.30;93.50;;;;;;5052359;28;20029;-66
2021/08/25 02:26:29;;;;;;;6.90;3.55;;;14.30;93.50;;;;;;5048276;28;20025;-66
2021/08/25 02:28:55;;;;;;;7.88;3.42;;;14.30;93.60;;;;;;5032684;28;20026;-65
2021/08/25 02:31:21;;;;;;;10.15;3.88;;;14.30;93.60;;;;;;5048878;28;20409;-66
2021/08/25 02:33:48;;;;;;;13.02;4.50;;;14.30;93.70;;;;;;5051367;28;20033;-66
2021/08/25 02:36:15;;;;;;;4.80;3.10;;;14.30;93.70;;;;;;5049856;28;20028;-65
2021/08/25 02:38:41;;;;;;;7.20;4.20;;;14.30;93.80;;;;;;5050628;28;20083;-65
2021/08/25 02:41:11;;;;;;;7.40;3.47;;;14.20;93.70;;;;;;5049997;28;20507;-65
2021/08/25 02:43:37;;;;;;;8.18;4.05;;;14.20;93.80;;;;;;5050993;28;20043;-65
2021/08/25 02:46:03;;;;;;;6.68;3.03;;;14.20;93.80;;;;;;5050925;28;20024;-65
2021/08/25 02:48:28;;;;;;;5.97;3.20;;;14.10;93.90;;;;;;5042618;28;20033;-65
2021/08/25 02:50:54;;;;;;;6.20;3.35;;;14.10;93.90;;;;;;5045619;28;20147;-65
2021/08/25 02:53:19;;;;;;;7.47;3.25;;;14.10;94.00;;;;;;5044163;28;20091;-65
2021/08/25 02:55:45;;;;;;;6.47;3.55;;;14.10;94.30;;;;;;5032161;28;20033;-65
2021/08/25 02:58:11;;;;;;;6.43;3.25;;;14.10;94.10;;;;;;5030280;28;20040;-65
2021/08/25 03:00:36;;;;;;;7.57;3.03;;;14.10;94.10;;;;;;5049352;28;20041;-65
2021/08/25 03:03:02;;;;;;;6.05;3.22;;;14.00;94.10;;;;;;5048876;28;20025;-66
2021/08/25 03:05:28;;;;;;;7.65;3.45;;;14.00;94.20;;;;;;5049250;28;20037;-66
2021/08/25 03:07:53;;;;;;;6.85;3.42;;;14.10;94.20;;;;;;5042055;28;20031;-66
2021/08/25 03:10:19;;;;;;;6.38;3.22;;;14.00;94.30;;;;;;5021661;28;20061;-66
2021/08/25 03:12:44;;;;;;;7.60;3.72;;;14.00;94.30;;;;;;5051186;28;20036;-66
2021/08/25 03:15:10;;;;;;;6.95;3.67;;;14.00;94.30;;;;;;5047738;28;20025;-65
2021/08/25 03:17:36;;;;;;;5.55;3.03;;;14.00;94.30;;;;;;5042887;28;20035;-66
2021/08/25 03:20:05;;;;;;;6.65;3.35;;;14.00;94.40;;;;;;5046792;28;20071;-65
2021/08/25 03:22:30;;;;;;;8.30;3.30;;;14.00;94.40;;;;;;5013057;28;20069;-66
2021/08/25 03:24:56;;;;;;;8.48;3.53;;;14.00;94.40;;;;;;5034507;28;20045;-66
2021/08/25 03:27:22;;;;;;;8.10;3.20;;;14.00;94.70;;;;;;5031221;28;20021;-66
2021/08/25 03:29:47;;;;;;;6.18;3.35;;;14.00;94.50;;;;;;5038906;28;20415;-66
2021/08/25 03:32:13;;;;;;;6.82;3.75;;;14.00;94.50;;;;;;5051039;28;20060;-66
2021/08/25 03:34:39;;;;;;;5.97;3.67;;;14.00;94.50;;;;;;5045570;28;20104;-66
2021/08/25 03:37:04;;;;;;;6.90;3.65;;;14.00;94.50;;;;;;5050890;28;20382;-66
2021/08/25 03:39:30;;;;;;;6.90;3.33;;;14.00;94.60;;;;;;5027671;28;20074;-66
2021/08/25 03:41:56;;;;;;;6.68;3.45;;;13.90;94.60;;;;;;5033107;28;20037;-66
2021/08/25 03:44:21;;;;;;;5.93;3.40;;;14.00;94.70;;;;;;5042660;28;20022;-66
2021/08/25 03:46:47;;;;;;;6.25;3.38;;;14.00;94.70;;;;;;5050973;28;20343;-66
2021/08/25 03:49:13;;;;;;;9.40;3.45;;;13.90;94.80;;;;;;5048604;28;20098;-66
2021/08/25 03:51:38;;;;;;;8.50;3.85;;;13.90;94.80;;;;;;5049996;28;20056;-66
2021/08/25 03:54:04;;;;;;;6.88;4.15;;;13.90;94.70;;;;;;5053888;28;20540;-66
2021/08/25 03:56:29;;;;;;;8.98;3.90;;;13.90;94.70;;;;;;5051650;28;20485;-66
2021/08/25 03:58:55;;;;;;;6.32;3.28;;;13.90;94.70;;;;;;5037674;28;20108;-66
2021/08/25 04:01:20;;;;;;;6.55;3.13;;;13.90;94.70;;;;;;5040721;28;20099;-66
2021/08/25 04:03:46;;;;;;;6.50;3.53;;;13.90;94.70;;;;;;5054848;28;20056;-66
2021/08/25 04:06:11;;;;;;;8.00;4.45;;;13.90;94.80;;;;;;5044140;28;20116;-66
2021/08/25 04:08:37;;;;;;;7.55;3.53;;;13.90;94.90;;;;;;5053473;28;20025;-65
2021/08/25 04:11:03;;;;;;;6.93;4.30;;;13.90;94.90;;;;;;5039259;28;20021;-65
2021/08/25 04:13:28;;;;;;;7.22;3.90;;;13.90;94.90;;;;;;5034558;28;20044;-66
2021/08/25 04:15:54;;;;;;;5.90;3.47;;;13.90;94.90;;;;;;5040290;28;20056;-66
2021/08/25 04:18:19;;;;;;;6.18;3.58;;;13.90;95.00;;;;;;5034759;28;20108;-67
2021/08/25 04:20:45;;;;;;;8.43;3.80;;;13.80;95.10;;;;;;5041125;28;20017;-66
2021/08/25 04:23:10;;;;;;;8.93;3.70;;;13.90;95.00;;;;;;5034592;28;20025;-65
2021/08/25 04:25:36;;;;;;;7.93;4.28;;;13.80;95.10;;;;;;5041251;28;20501;-65
2021/08/25 04:28:02;;;;;;;8.80;4.30;;;13.80;95.10;;;;;;5050187;28;20041;-65
2021/08/25 04:30:27;;;;;;;6.30;3.50;;;13.90;95.10;;;;;;5043819;28;20033;-65
2021/08/25 04:32:53;;;;;;;7.38;4.10;;;13.90;95.10;;;;;;5034658;28;20086;-65
2021/08/25 04:35:18;;;;;;;9.35;4.10;;;13.90;95.10;;;;;;5041066;28;20295;-65
2021/08/25 04:37:44;;;;;;;7.80;4.03;;;13.80;95.00;;;;;;5054167;28;20036;-66
2021/08/25 04:40:09;;;;;;;9.32;4.38;;;13.90;95.10;;;;;;5046244;28;20461;-65
2021/08/25 04:42:35;;;;;;;7.07;4.25;;;13.90;95.10;;;;;;5052577;28;20119;-66
2021/08/25 04:45:00;;;;;;;8.50;4.30;;;13.90;95.10;;;;;;5034511;28;20407;-66
2021/08/25 04:47:26;;;;;;;9.82;4.20;;;13.90;95.10;;;;;;5029873;28;20545;-66
2021/08/25 04:49:51;;;;;;;7.35;4.15;;;13.90;95.10;;;;;;5044818;28;20010;-65
2021/08/25 04:52:17;;;;;;;9.57;4.18;;;13.90;95.10;;;;;;5051875;28;20538;-66
2021/08/25 04:54:43;;;;;;;7.35;4.30;;;13.90;95.10;;;;;;5052771;28;20021;-66
2021/08/25 04:57:09;;;;;;;6.82;3.97;;;13.90;95.10;;;;;;5048821;28;20419;-66
2021/08/25 04:59:35;;;;;;;7.63;4.35;;;14.00;95.10;;;;;;5040578;28;20033;-66
2021/08/25 05:02:00;;;;;;;9.88;4.15;;;14.00;95.20;;;;;;5051696;28;20063;-66
2021/08/25 05:04:25;;;;;;;6.80;4.05;;;14.00;95.20;;;;;;5051880;28;20092;-66
2021/08/25 05:06:51;;;;;;;8.00;3.55;;;14.10;95.20;;;;;;5053340;28;20103;-66
2021/08/25 05:09:16;;;;;;;6.88;3.63;;;14.10;95.30;;;;;;5033983;28;20026;-66
2021/08/25 05:11:42;;;;;;;6.68;3.17;;;14.10;95.40;;;;;;5053100;28;20056;-65
2021/08/25 05:14:07;;;;;;;7.95;4.20;;;14.20;95.50;;;;;;5051330;28;20021;-65
2021/08/25 05:16:33;;;;;;;9.60;5.10;;;14.20;95.50;;;;;;5052208;28;20171;-65
2021/08/25 05:18:58;;;;;;;8.60;3.60;;;14.20;95.50;;;;;;5026669;28;20485;-65
2021/08/25 05:21:25;;;;;;;9.85;4.22;;;14.30;95.60;;;;;;5044151;28;20025;-65
2021/08/25 05:23:50;;;;;;;6.45;3.60;;;14.40;95.40;;;;;;5053146;28;20033;-65
2021/08/25 05:26:16;;;;;;;7.88;3.95;;;14.40;95.30;;;;;;5032398;28;20055;-65
2021/08/25 05:28:41;;;;;;;6.38;3.63;;;14.50;95.40;;;;;;5052089;28;20029;-65
2021/08/25 05:31:07;;;;;;;9.85;3.92;;;14.50;95.50;;;;;;5051482;28;20028;-65
2021/08/25 05:33:32;;;;;;;8.35;4.22;;;14.50;95.60;;;;;;5050734;28;20025;-66
2021/08/25 05:35:59;;;;;;;7.03;4.00;;;14.50;95.70;;;;;;5051700;28;20033;-65
2021/08/25 05:38:25;;;;;;;7.85;4.22;;;14.60;95.70;;;;;;5051635;28;20033;-65
2021/08/25 05:40:50;;;;;;;8.07;3.88;;;14.60;95.70;;;;;;5051791;28;20039;-65
2021/08/25 05:43:17;;;;;;;10.30;5.18;;;14.70;95.60;;;;;;5039396;28;20029;-66
2021/08/25 05:45:43;;;;;;;7.95;4.57;;;14.70;95.50;;;;;;5044429;28;20430;-66
2021/08/25 05:48:09;;;;;;;8.57;4.97;;;14.80;95.50;;;;;;5051110;28;20028;-66
2021/08/25 05:50:34;;;;;;;7.70;4.70;;;14.90;95.30;;;;;;5051419;28;20397;-66
2021/08/25 05:53:00;;;;;;;10.10;3.83;;;15.00;95.40;;;;;;5043164;28;20026;-66
2021/08/25 05:55:25;;;;;;;7.65;4.18;;;15.10;95.40;;;;;;5042008;28;20025;-66
2021/08/25 05:57:51;;;;;;;6.90;3.75;;;15.10;95.30;;;;;;5050532;28;20021;-67
2021/08/25 06:00:18;;;;;;;7.53;3.83;;;15.20;95.50;;;;;;5040540;28;20029;-67
2021/08/25 06:02:44;;;;;;;8.68;4.85;;;15.30;95.60;;;;;;5043814;28;20029;-67
2021/08/25 06:05:11;;;;;;;5.78;3.63;;;15.40;95.60;;;;;;5050264;28;20051;-67
2021/08/25 06:07:37;;;;;;;7.45;4.10;;;15.50;95.40;;;;;;5053062;28;20033;-67
2021/08/25 06:10:04;;;;;;;7.25;3.92;;;15.70;95.20;;;;;;5048966;28;20025;-67
2021/08/25 06:12:29;;;;;;;10.70;4.40;;;15.80;95.20;;;;;;5051560;28;20068;-67
2021/08/25 06:14:55;;;;;;;7.47;4.10;;;16.00;94.90;;;;;;5043239;28;20061;-67
2021/08/25 06:17:20;;;;;;;7.00;3.70;;;16.00;95.00;;;;;;5050876;28;20112;-67
2021/08/25 06:19:47;;;;;;;11.18;4.38;;;16.20;94.90;;;;;;5049552;28;20052;-67
2021/08/25 06:22:12;;;;;;;6.68;3.58;;;16.30;94.90;;;;;;5052702;28;20541;-67
2021/08/25 06:24:38;;;;;;;5.97;3.63;;;16.40;94.70;;;;;;5050110;28;20144;-72
2021/08/25 06:27:04;;;;;;;6.07;3.30;;;16.60;94.50;;;;;;5032286;28;20060;-67
2021/08/25 06:29:29;;;;;;;6.53;3.67;;;16.70;94.20;;;;;;5031271;28;20088;-67
2021/08/25 06:31:55;;;;;;;6.25;3.05;;;16.80;94.20;;;;;;5042155;28;20029;-67
2021/08/25 06:34:21;;;;;;;6.45;3.38;;;16.90;93.80;;;;;;5049961;28;20064;-67
2021/08/25 06:36:46;;;;;;;6.38;3.10;;;17.00;93.80;;;;;;5031975;28;20377;-70
2021/08/25 06:39:12;;;;;;;5.85;3.13;;;17.20;93.80;;;;;;5040519;28;20025;-70
2021/08/25 06:41:37;;;;;;;7.03;3.20;;;17.30;93.40;;;;;;5033739;28;20036;-71
2021/08/25 06:44:03;;;;;;;6.82;3.45;;;17.40;93.50;;;;;;5051325;28;20426;-71
2021/08/25 06:46:29;;;;;;;6.85;3.67;;;17.50;93.20;;;;;;5040816;28;20036;-70
2021/08/25 06:48:54;;;;;;;6.00;3.38;;;17.70;93.10;;;;;;5042961;28;20036;-71
2021/08/25 06:51:20;;;;;;;6.35;4.13;;;17.70;92.90;;;;;;5048993;28;20047;-71
2021/08/25 06:53:45;;;;;;;5.90;3.47;;;17.80;92.60;;;;;;5037320;28;20147;-71
2021/08/25 06:56:11;;;;;;;5.50;3.28;;;17.90;92.50;;;;;;5044626;28;20087;-70
2021/08/25 06:58:36;;;;;;;7.32;4.13;;;18.00;92.40;;;;;;5047689;28;20369;-70
2021/08/25 07:01:02;;;;;;;7.28;3.22;;;18.10;92.40;;;;;;5038419;28;20038;-70
2021/08/25 07:03:27;;;;;;;5.47;3.17;;;18.20;92.10;;;;;;5039051;28;20514;-70
2021/08/25 07:05:53;;;;;;;9.82;3.83;;;18.30;91.60;;;;;;5046962;28;20032;-70
2021/08/25 07:08:18;;;;;;;6.78;3.63;;;18.40;91.00;;;;;;5040389;28;20029;-70
2021/08/25 07:10:44;;;;;;;7.07;3.60;;;18.40;91.00;;;;;;5036691;28;20296;-70
2021/08/25 07:13:09;;;;;;;7.95;3.40;;;18.50;90.60;;;;;;5040054;28;20075;-71
2021/08/25 07:15:35;;;;;;;7.63;3.83;;;18.60;90.50;;;;;;5040269;28;20508;-70
2021/08/25 07:18:00;;;;;;;9.75;3.95;;;18.70;90.20;;;;;;5030629;28;20029;-71
2021/08/25 07:20:26;;;;;;;11.20;3.72;;;18.80;90.30;;;;;;5043512;28;20114;-70
2021/08/25 07:22:51;;;;;;;8.32;3.42;;;18.90;90.00;;;;;;5039049;28;20028;-70
2021/08/25 07:25:17;;;;;;;5.65;3.22;;;19.00;89.90;;;;;;5043793;28;20021;-71
2021/08/25 07:27:42;;;;;;;5.90;2.78;;;19.10;88.90;;;;;;5040099;28;20477;-71
2021/08/25 07:30:10;;;;;;;8.18;3.08;;;19.20;88.10;;;;;;5039150;28;20066;-70
2021/08/25 07:32:36;;;;;;;5.65;3.40;;;19.30;88.20;;;;;;5047967;28;20029;-70
2021/08/25 07:35:03;;;;;;;7.32;3.08;;;19.30;86.30;;;;;;5045254;28;20123;-70
2021/08/25 07:37:28;;;;;;;5.63;3.67;;;19.40;85.50;;;;;;5039627;28;20033;-70
2021/08/25 07:39:54;;;;;;;6.68;3.53;;;19.40;85.30;;;;;;5036933;28;20025;-71
2021/08/25 07:42:19;;;;;;;6.20;3.40;;;19.50;85.30;;;;;;5031349;28;20108;-71
2021/08/25 07:44:45;;;;;;;5.65;2.88;;;19.50;84.40;;;;;;5039366;28;20025;-71
2021/08/25 07:47:10;;;;;;;4.85;2.38;;;19.60;83.80;;;;;;5043827;28;20130;-70
2021/08/25 07:49:36;;;;;;;33.65;3.35;;;19.70;82.40;;;;;;5042330;28;20103;-71
2021/08/25 07:52:03;;;;;;;5.50;3.03;;;19.70;80.10;;;;;;5044819;28;20045;-69
2021/08/25 07:54:29;;;;;;;5.50;2.97;;;19.70;78.50;;;;;;5038581;28;20036;-71
2021/08/25 07:56:54;;;;;;;7.05;2.50;;;19.70;78.20;;;;;;5037858;28;20022;-71
2021/08/25 07:59:20;;;;;;;5.00;2.85;;;19.80;77.70;;;;;;5027024;28;20079;-71
2021/08/25 08:01:45;;;;;;;4.90;2.60;;;19.80;77.30;;;;;;5043150;28;20504;-71
2021/08/25 08:04:11;;;;;;;6.13;2.80;;;19.90;76.00;;;;;;5036274;28;20408;-71
2021/08/25 08:06:36;;;;;;;5.00;2.75;;;19.90;75.30;;;;;;5040478;28;20030;-70
2021/08/25 08:09:02;;;;;;;5.03;2.60;;;20.00;75.20;;;;;;5029279;28;20018;-69
2021/08/25 08:11:28;;;;;;;3.75;2.58;;;20.00;73.80;;;;;;5033561;28;20029;-70
2021/08/25 08:13:53;;;;;;;5.60;2.70;;;20.10;74.80;;;;;;5044761;28;20067;-70
2021/08/25 08:16:22;;;;;;;4.68;2.47;;;20.20;75.10;;;;;;5036805;28;20059;-70
2021/08/25 08:19:02;;;;;;;3.65;2.25;;;20.30;75.30;;;;;;5037882;28;20393;-70
2021/08/25 08:21:28;;;;;;;5.53;2.45;;;20.40;75.50;;;;;;5034454;28;20037;-69
2021/08/25 08:23:55;;;;;;;5.63;2.53;;;20.50;75.60;;;;;;5025701;28;20353;-71
2021/08/25 08:26:21;;;;;;;5.47;2.20;;;20.50;75.00;;;;;;5025548;28;20838;-70
2021/08/25 08:28:47;;;;;;;3.92;2.20;;;20.60;75.00;;;;;;5030341;28;20271;-70
2021/08/25 08:31:13;;;;;;;4.30;2.47;;;20.70;74.10;;;;;;5038260;28;20021;-70
2021/08/25 08:33:39;;;;;;;5.53;2.85;;;20.80;74.00;;;;;;5042829;28;20053;-70
2021/08/25 08:36:05;;;;;;;7.30;3.42;;;20.90;73.70;;;;;;5037465;28;20061;-70
2021/08/25 08:38:31;;;;;;;5.55;2.70;;;21.00;73.90;;;;;;5046146;28;20035;-70
2021/08/25 08:40:56;;;;;;;3.65;2.35;;;21.10;72.10;;;;;;5042774;28;20036;-70
2021/08/25 08:43:22;;;;;;;4.93;2.70;;;21.10;72.60;;;;;;5049154;28;20047;-69
2021/08/25 08:45:49;;;;;;;5.93;3.03;;;21.20;72.90;;;;;;5047379;28;20063;-70
2021/08/25 08:48:15;;;;;;;4.30;2.47;;;21.30;72.80;;;;;;5038865;28;20382;-70
2021/08/25 08:50:43;;;;;;;5.50;2.67;;;21.40;71.80;;;;;;5024327;28;20033;-70
2021/08/25 08:53:11;;;;;;;4.70;2.70;;;21.40;70.70;;;;;;5039259;28;20032;-71
2021/08/25 08:55:38;;;;;;;4.80;2.53;;;21.50;71.20;;;;;;5035549;28;20041;-70
2021/08/25 08:58:05;;;;;;;4.50;2.70;;;21.50;69.50;;;;;;5023507;28;20040;-71
2021/08/25 09:00:31;;;;;;;5.05;2.53;;;21.50;69.00;;;;;;5050493;28;20072;-71
2021/08/25 09:02:57;;;;;;;4.65;2.35;;;21.50;68.30;;;;;;5034201;28;20029;-72
2021/08/25 09:05:32;;;;;;;6.65;2.70;;;21.40;69.00;;;;;;5047996;28;20037;-71
2021/08/25 09:08:00;;;;;;;3.83;2.33;;;21.50;68.90;;;;;;5038688;28;20187;-73
2021/08/25 09:10:32;;;;;;;6.88;2.65;;;21.50;69.10;;;;;;5042768;28;20033;-71
2021/08/25 09:13:06;;;;;;;5.38;3.08;;;21.40;68.80;;;;;;5042513;28;20107;-72
2021/08/25 09:15:35;;;;;;;6.75;2.53;;;21.40;69.20;;;;;;5041281;28;20128;-71
2021/08/25 09:18:06;;;;;;;4.85;2.60;;;21.40;69.00;;;;;;5036282;28;20124;-72
2021/08/25 09:20:44;;;;;;;4.40;2.72;;;21.40;69.20;;;;;;5035049;28;20125;-73
2021/08/25 09:23:18;;;;;;;4.95;2.72;;;21.40;69.80;;;;;;5041725;28;20021;-70
2021/08/25 09:25:45;;;;;;;4.88;2.80;;;21.40;70.80;;;;;;5044286;28;20035;-69
2021/08/25 09:28:14;;;;;;;4.40;2.63;;;21.50;70.50;;;;;;5042440;28;20028;-69
2021/08/25 09:30:53;;;;;;;4.82;3.00;;;21.50;69.80;;;;;;5046616;28;20025;-70
2021/08/25 09:33:21;;;;;;;5.25;2.92;;;21.50;70.10;;;;;;5046723;28;20040;-71
2021/08/25 09:35:46;;;;;;;5.22;3.03;;;21.50;70.50;;;;;;5030963;28;20083;-70
2021/08/25 09:38:19;;;;;;;6.03;2.97;;;21.40;70.90;;;;;;5043723;28;20029;-70
2021/08/25 09:40:58;;;;;;;6.70;2.88;;;21.40;70.90;;;;;;5025736;28;20474;-71
2021/08/25 09:43:43;;;;;;;6.43;2.72;;;21.50;70.80;;;;;;5051532;28;20493;-74
2021/08/25 09:46:22;;;;;;;4.47;2.65;;;21.50;71.10;;;;;;5053143;28;20051;-70
2021/08/25 09:48:55;;;;;;;5.88;2.83;;;21.50;71.50;;;;;;5043417;28;20379;-70
2021/08/25 09:51:24;;;;;;;5.03;2.70;;;21.60;70.80;;;;;;5044931;28;20053;-70
2021/08/25 09:54:02;;;;;;;6.78;3.50;;;21.60;70.30;;;;;;5053189;28;20922;-70
2021/08/25 09:56:33;;;;;;;7.63;3.22;;;21.60;70.60;;;;;;5043284;28;20502;-70
2021/08/25 09:59:03;;;;;;;5.57;3.17;;;21.70;71.10;;;;;;5044217;28;20361;-70
2021/08/25 10:01:29;;;;;;;9.05;3.00;;;21.70;71.20;;;;;;5046039;28;20045;-70
2021/08/25 10:03:56;;;;;;;5.75;3.38;;;21.70;71.00;;;;;;5043130;28;20481;-70
2021/08/25 10:06:24;;;;;;;4.78;2.88;;;21.70;71.00;;;;;;5050608;28;20029;-70
2021/08/25 10:08:50;;;;;;;6.75;3.10;;;21.70;71.50;;;;;;5043998;28;20118;-69
2021/08/25 10:11:20;;;;;;;5.43;2.88;;;21.70;71.00;;;;;;5045707;28;20025;-69
2021/08/25 10:13:45;;;;;;;7.50;2.90;;;21.70;70.80;;;;;;5048705;28;20362;-68
2021/08/25 10:16:13;;;;;;;4.50;2.55;;;21.70;70.90;;;;;;5037462;28;20080;-69
2021/08/25 10:18:40;;;;;;;7.15;3.38;;;21.60;70.60;;;;;;5047265;28;20044;-68
2021/08/25 10:21:34;;;;;;;6.15;3.30;;;21.60;70.70;;;;;;5048172;28;20033;-71
2021/08/25 10:24:02;;;;;;;6.95;2.80;;;21.50;70.30;;;;;;5051701;28;20159;-68
2021/08/25 10:26:29;;;;;;;6.03;3.25;;;21.50;70.40;;;;;;5046262;28;20043;-71
2021/08/25 10:29:07;;;;;;;6.00;3.20;;;21.50;70.30;;;;;;5040391;28;20040;-68
2021/08/25 10:31:54;;;;;;;6.05;2.70;;;21.40;70.50;;;;;;5052418;28;20053;-68
2021/08/25 10:34:22;;;;;;;5.95;3.45;;;21.30;69.80;;;;;;5035184;28;20469;-68
2021/08/25 10:36:48;;;;;;;5.32;2.90;;;21.30;69.70;;;;;;5054390;28;20029;-68
2021/08/25 10:39:29;;;;;;;7.30;3.10;;;21.20;69.60;;;;;;5053985;28;20021;-68
2021/08/25 10:41:55;;;;;;;5.15;2.70;;;21.20;69.30;;;;;;5031826;28;20049;-68
2021/08/25 10:44:45;;;;;;;4.22;2.58;;;21.10;68.80;;;;;;5033507;28;20025;-68
2021/08/25 10:47:12;;;;;;;6.43;2.90;;;21.10;69.30;;;;;;5052413;28;20044;-68
2021/08/25 10:49:44;;;;;;;6.95;3.00;;;21.10;69.80;;;;;;5038268;28;20033;-68
2021/08/25 10:52:16;;;;;;;4.90;2.85;;;21.10;70.00;;;;;;5051794;28;20049;-68
2021/08/25 10:54:46;;;;;;;5.00;3.10;;;21.10;70.30;;;;;;5050798;28;20028;-68
2021/08/25 10:57:15;;;;;;;6.80;2.95;;;21.10;70.60;;;;;;5034286;28;20060;-68
2021/08/25 10:59:40;;;;;;;5.18;3.03;;;21.10;70.90;;;;;;5052299;28;20020;-68
2021/08/25 11:02:07;;;;;;;5.30;3.20;;;21.20;71.10;;;;;;5052965;28;20174;-68
2021/08/25 11:04:32;;;;;;;6.28;3.00;;;21.20;71.10;;;;;;5051302;28;20033;-68
2021/08/25 11:07:05;;;;;;;4.47;2.90;;;21.30;71.80;;;;;;5050825;28;20450;-68
2021/08/25 11:09:47;;;;;;;5.68;3.10;;;21.40;72.40;;;;;;5043270;28;20070;-68
2021/08/25 11:12:23;;;;;;;4.15;2.40;;;21.50;72.30;;;;;;5049029;28;20021;-68
2021/08/25 11:14:53;;;;;;;6.70;2.72;;;21.50;71.30;;;;;;5036418;28;20036;-68
2021/08/25 11:17:22;;;;;;;5.65;2.85;;;21.60;70.50;;;;;;5051674;28;20055;-68
2021/08/25 11:19:52;;;;;;;4.60;2.65;;;21.60;70.40;;;;;;5050156;28;20079;-68
2021/08/25 11:22:20;;;;;;;6.93;2.50;;;21.60;69.80;;;;;;5051817;28;20090;-68
2021/08/25 11:24:49;;;;;;;5.55;2.72;;;21.60;69.60;;;;;;5049999;28;20048;-68
2021/08/25 11:27:28;;;;;;;7.35;3.10;;;21.50;69.40;;;;;;5051457;28;20033;-68
2021/08/25 11:30:11;;;;;;;4.57;2.63;;;21.50;69.60;;;;;;5049506;28;20091;-68
2021/08/25 11:32:49;;;;;;;5.25;2.90;;;21.50;70.00;;;;;;5050618;28;20102;-69
2021/08/25 11:35:25;;;;;;;5.13;2.60;;;21.50;71.20;;;;;;5041753;28;20032;-69
2021/08/25 11:37:51;;;;;;;8.27;2.90;;;21.50;70.90;;;;;;5031440;28;20030;-68
2021/08/25 11:40:17;;;;;;;6.07;3.15;;;21.50;70.40;;;;;;5022630;28;20462;-68
2021/08/25 11:42:42;;;;;;;5.05;2.72;;;21.50;70.10;;;;;;5033305;28;20057;-68
2021/08/25 11:45:23;;;;;;;5.50;3.08;;;21.50;70.10;;;;;;5031722;28;20021;-69
2021/08/25 11:47:51;;;;;;;6.15;3.55;;;21.50;69.80;;;;;;5051300;28;20033;-69
2021/08/25 11:50:19;;;;;;;6.50;3.25;;;21.50;70.00;;;;;;5030859;28;20037;-69
2021/08/25 11:52:45;;;;;;;4.65;2.42;;;21.50;70.10;;;;;;5051119;28;20481;-68
2021/08/25 11:55:10;;;;;;;4.20;2.75;;;21.60;70.10;;;;;;5032697;28;20071;-69
2021/08/25 11:57:50;;;;;;;4.47;2.80;;;21.60;69.60;;;;;;5044976;28;20076;-69
2021/08/25 12:00:19;;;;;;;5.40;2.80;;;21.60;69.30;;;;;;5039977;28;20056;-69
2021/08/25 12:02:58;;;;;;;5.55;2.88;;;21.60;69.30;;;;;;5031057;28;20093;-69
2021/08/25 12:05:30;;;;;;;10.98;3.03;;;21.70;69.20;;;;;;5040913;28;20387;-69
2021/08/25 12:08:06;;;;;;;4.80;2.85;;;21.70;69.20;;;;;;5050906;28;20381;-69
2021/08/25 12:10:33;;;;;;;4.32;2.65;;;21.70;69.10;;;;;;5049422;28;20033;-69
2021/08/25 12:12:59;;;;;;;6.30;2.97;;;21.70;68.90;;;;;;5049937;28;20051;-69
2021/08/25 12:15:46;;;;;;;4.85;2.75;;;21.80;69.30;;;;;;5051830;28;20040;-69
2021/08/25 12:18:13;;;;;;;7.95;2.83;;;21.90;69.40;;;;;;5055263;28;20025;-69
2021/08/25 12:20:41;;;;;;;4.40;2.50;;;21.90;69.30;;;;;;5053996;28;20112;-69
2021/08/25 12:23:09;;;;;;;3.95;2.65;;;22.00;69.50;;;;;;5055323;28;20354;-69
2021/08/25 12:25:44;;;;;;;4.10;2.42;;;22.10;69.40;;;;;;5052973;28;20486;-69
2021/08/25 12:28:14;;;;;;;4.35;2.67;;;22.30;69.30;;;;;;5054826;28;20112;-69
2021/08/25 12:30:42;;;;;;;7.43;3.58;;;22.40;69.10;;;;;;5053979;28;20025;-69
2021/08/25 12:33:10;;;;;;;7.38;3.10;;;22.60;68.80;;;;;;5052898;28;20079;-69
2021/08/25 12:35:38;;;;;;;4.43;2.78;;;22.60;68.30;;;;;;5053211;28;20072;-69
2021/08/25 12:38:05;;;;;;;5.97;2.80;;;22.70;68.00;;;;;;5054695;28;20025;-69
2021/08/25 12:40:31;;;;;;;5.40;3.15;;;22.70;67.80;;;;;;5053343;28;20029;-69
2021/08/25 12:42:58;;;;;;;5.65;2.70;;;22.70;67.60;;;;;;5054829;28;20032;-69
2021/08/25 12:45:25;;;;;;;5.82;3.20;;;22.60;68.00;;;;;;5053404;28;20369;-69
2021/08/25 12:47:52;;;;;;;6.72;3.13;;;22.60;67.80;;;;;;5034197;28;20384;-69
2021/08/25 12:50:20;;;;;;;6.68;2.85;;;22.60;67.70;;;;;;5043084;28;20064;-67